createdAt,value
2018-10-19T00:01:54.086Z,75.84
2018-10-19T00:04:25.519Z,75.69
2018-10-19T00:06:56.783Z,75.69
2018-10-19T00:09:28.028Z,75.76
2018-10-19T00:11:59.520Z,75.94
2018-10-19T00:14:31.096Z,76.15
2018-10-19T00:17:03.043Z,75.80
2018-10-19T00:19:34.413Z,75.99
2018-10-19T00:22:05.966Z,76.03
2018-10-19T00:24:37.185Z,76.11
2018-10-19T00:27:09.043Z,76.25
2018-10-19T00:29:40.160Z,76.39
2018-10-19T00:32:11.593Z,76.37
2018-10-19T00:34:43.313Z,76.42
2018-10-19T00:37:14.508Z,76.60
2018-10-19T00:39:46.509Z,76.50
2018-10-19T00:42:17.785Z,76.66
2018-10-19T00:44:49.458Z,77.07
2018-10-19T00:47:20.700Z,77.29
2018-10-19T00:49:51.970Z,77.44
2018-10-19T00:52:23.274Z,77.33
2018-10-19T00:54:54.494Z,77.56
2018-10-19T00:57:25.700Z,77.76
2018-10-19T00:59:57.030Z,77.98
2018-10-19T01:02:28.288Z,77.63
2018-10-19T01:04:59.564Z,78.18
2018-10-19T01:07:30.725Z,78.27
2018-10-19T01:10:02.382Z,78.36
2018-10-19T01:12:33.603Z,78.40
2018-10-19T01:15:04.924Z,78.78
2018-10-19T01:17:36.122Z,78.65
2018-10-19T01:20:07.420Z,78.65
2018-10-19T01:22:38.702Z,78.63
2018-10-19T01:25:09.991Z,78.71
2018-10-19T01:27:41.253Z,79.01
2018-10-19T01:30:12.443Z,79.13
2018-10-19T01:32:43.665Z,79.29
2018-10-19T01:35:15.093Z,78.93
2018-10-19T01:37:46.186Z,79.01
2018-10-19T01:40:17.435Z,78.90
2018-10-19T01:42:48.645Z,79.26
2018-10-19T01:45:20.107Z,78.72
2018-10-19T01:47:51.282Z,79.31
2018-10-19T01:50:22.917Z,78.99
2018-10-19T01:52:54.242Z,80.44
2018-10-19T01:55:25.408Z,79.76
2018-10-19T01:57:56.728Z,79.51
2018-10-19T02:00:28.412Z,79.99
2018-10-19T02:02:59.935Z,80.39
2018-10-19T02:05:31.518Z,80.46
2018-10-19T02:08:02.858Z,80.17
2018-10-19T02:10:34.265Z,80.32
2018-10-19T02:13:05.513Z,80.49
2018-10-19T02:15:37.204Z,80.02
2018-10-19T02:18:08.862Z,80.13
2018-10-19T02:20:40.075Z,80.21
2018-10-19T02:23:11.342Z,79.88
2018-10-19T02:25:42.516Z,80.11
2018-10-19T02:28:14.151Z,80.07
2018-10-19T02:30:45.674Z,79.97
2018-10-19T02:33:17.125Z,79.24
2018-10-19T02:35:48.204Z,80.03
2018-10-19T02:38:19.401Z,81.09
2018-10-19T02:40:50.977Z,79.66
2018-10-19T02:43:22.655Z,81.18
2018-10-19T02:45:54.075Z,80.47
2018-10-19T02:48:25.287Z,80.13
2018-10-19T02:50:56.496Z,80.06
2018-10-19T02:53:28.143Z,79.64
2018-10-19T02:55:59.702Z,79.58
2018-10-19T02:58:30.957Z,79.87
2018-10-19T03:01:02.149Z,80.24
2018-10-19T03:03:33.412Z,80.52
2018-10-19T03:06:04.584Z,80.27
2018-10-19T03:08:36.333Z,80.91
2018-10-19T03:11:08.183Z,80.73
2018-10-19T03:13:39.314Z,81.49
2018-10-19T03:16:10.791Z,81.08
2018-10-19T03:18:41.989Z,81.85
2018-10-19T03:21:13.597Z,81.35
2018-10-19T03:23:44.799Z,81.42
2018-10-19T03:26:16.053Z,81.73
2018-10-19T03:28:47.256Z,81.77
2018-10-19T03:31:18.617Z,82.90
2018-10-19T03:33:49.758Z,82.11
2018-10-19T03:36:21.565Z,80.78
2018-10-19T03:38:52.820Z,80.23
2018-10-19T03:41:24.024Z,81.19
2018-10-19T03:43:55.512Z,80.86
2018-10-19T03:46:26.745Z,80.71
2018-10-19T03:48:58.253Z,81.22
2018-10-19T03:51:29.457Z,81.44
2018-10-19T03:54:01.115Z,82.27
2018-10-19T03:56:32.383Z,82.61
2018-10-19T03:59:03.878Z,82.31
2018-10-19T04:01:35.659Z,82.61
2018-10-19T04:04:07.215Z,82.94
2018-10-19T04:06:38.432Z,82.88
2018-10-19T04:09:13.471Z,81.70
2018-10-19T04:11:44.943Z,81.57
2018-10-19T04:14:16.259Z,82.07
2018-10-19T04:16:47.481Z,83.05
2018-10-19T04:19:19.022Z,82.78
2018-10-19T04:21:50.225Z,82.43
2018-10-19T04:24:21.993Z,82.01
2018-10-19T04:26:54.098Z,82.91
2018-10-19T04:29:25.526Z,82.35
2018-10-19T04:31:57.035Z,81.98
2018-10-19T04:34:28.472Z,81.22
2018-10-19T04:37:07.681Z,80.71
2018-10-19T04:39:38.885Z,81.30
2018-10-19T04:42:10.375Z,80.68
2018-10-19T04:44:41.594Z,80.88
2018-10-19T04:47:13.387Z,80.81
2018-10-19T04:49:44.591Z,81.52
2018-10-19T04:52:16.149Z,81.17
2018-10-19T04:54:47.824Z,81.37
2018-10-19T04:57:19.733Z,81.74
2018-10-19T04:59:50.918Z,81.25
2018-10-19T05:02:22.364Z,80.46
2018-10-19T05:04:54.014Z,81.44
2018-10-19T05:07:25.242Z,81.34
2018-10-19T05:09:56.397Z,81.23
2018-10-19T05:12:27.714Z,83.15
2018-10-19T05:14:58.897Z,82.01
2018-10-19T05:17:30.435Z,81.57
2018-10-19T05:20:20.669Z,81.92
2018-10-19T05:22:51.875Z,80.88
2018-10-19T05:25:23.438Z,80.19
2018-10-19T05:27:54.609Z,81.39
2018-10-19T05:30:25.834Z,81.31
2018-10-19T05:32:57.120Z,80.99
2018-10-19T05:35:28.308Z,81.48
2018-10-19T05:37:59.845Z,80.84
2018-10-19T05:40:31.384Z,80.52
2018-10-19T05:43:02.593Z,81.76
2018-10-19T05:45:34.067Z,81.78
2018-10-19T05:48:05.561Z,81.09
2018-10-19T05:50:36.750Z,81.71
2018-10-19T05:53:08.135Z,82.54
2018-10-19T05:55:39.543Z,82.25
2018-10-19T05:58:10.745Z,81.90
2018-10-19T06:00:42.259Z,82.92
2018-10-19T06:03:13.470Z,82.42
2018-10-19T06:05:44.676Z,83.58
2018-10-19T06:08:16.803Z,82.31
2018-10-19T06:10:48.418Z,83.72
2018-10-19T06:13:19.561Z,83.66
2018-10-19T06:15:50.993Z,83.35
2018-10-19T06:18:22.178Z,82.00
2018-10-19T06:20:53.401Z,82.17
2018-10-19T06:23:24.639Z,82.79
2018-10-19T06:25:55.920Z,82.73
2018-10-19T06:28:27.118Z,81.67
2018-10-19T06:30:58.547Z,81.52
2018-10-19T06:33:29.701Z,81.41
2018-10-19T06:36:00.910Z,81.58
2018-10-19T06:38:34.524Z,81.25
2018-10-19T06:41:03.393Z,81.80
2018-10-19T06:43:34.910Z,80.35
2018-10-19T06:46:06.773Z,79.90
2018-10-19T06:48:38.123Z,79.68
2018-10-19T06:51:09.335Z,78.31
2018-10-19T06:53:40.921Z,78.34
2018-10-19T06:56:12.517Z,77.63
2018-10-19T06:58:44.401Z,77.39
2018-10-19T07:01:15.605Z,77.76
2018-10-19T07:03:46.789Z,77.58
2018-10-19T07:06:18.020Z,75.82
2018-10-19T07:08:49.246Z,75.20
2018-10-19T07:11:20.466Z,74.61
2018-10-19T07:13:51.768Z,73.77
2018-10-19T07:16:23.213Z,74.17
2018-10-19T07:18:54.935Z,73.50
2018-10-19T07:21:26.075Z,73.01
2018-10-19T07:23:57.295Z,71.84
2018-10-19T07:26:28.722Z,70.75
2018-10-19T07:28:59.985Z,71.75
2018-10-19T07:31:31.381Z,70.10
2018-10-19T07:34:02.900Z,68.61
2018-10-19T07:36:34.271Z,67.63
2018-10-19T07:39:06.299Z,66.07
2018-10-19T07:41:38.066Z,66.18
2018-10-19T07:44:09.676Z,66.73
2018-10-19T07:46:41.063Z,66.08
2018-10-19T07:49:12.320Z,64.91
2018-10-19T07:51:43.857Z,63.81
2018-10-19T07:54:15.325Z,64.35
2018-10-19T07:56:46.710Z,64.55
2018-10-19T07:59:17.905Z,62.98
2018-10-19T08:01:49.378Z,62.84
2018-10-19T08:04:21.008Z,63.49
2018-10-19T08:06:52.478Z,64.79
2018-10-19T08:09:23.679Z,62.80
2018-10-19T08:11:55.392Z,62.88
2018-10-19T08:14:27.494Z,61.57
2018-10-19T08:16:58.689Z,61.98
2018-10-19T08:19:29.856Z,59.55
2018-10-19T08:22:01.427Z,60.64
2018-10-19T08:24:32.654Z,60.24
2018-10-19T08:27:03.875Z,61.27
2018-10-19T08:29:35.252Z,60.61
2018-10-19T08:32:07.316Z,59.79
2018-10-19T08:34:38.774Z,58.81
2018-10-19T08:37:09.949Z,59.67
2018-10-19T08:39:41.418Z,57.56
2018-10-19T08:42:12.968Z,58.89
2018-10-19T08:44:44.213Z,57.27
2018-10-19T08:47:15.448Z,58.81
2018-10-19T08:49:47.013Z,58.00
2018-10-19T08:52:18.225Z,55.03
2018-10-19T08:54:49.640Z,55.43
2018-10-19T08:57:20.872Z,54.14
2018-10-19T08:59:52.112Z,53.21
2018-10-19T09:02:23.401Z,53.19
2018-10-19T09:04:54.650Z,54.20
2018-10-19T09:07:25.867Z,53.41
2018-10-19T09:09:57.063Z,52.65
2018-10-19T09:12:28.331Z,53.10
2018-10-19T09:15:00.929Z,52.99
2018-10-19T09:17:32.594Z,51.37
2018-10-19T09:20:04.349Z,51.07
2018-10-19T09:22:35.619Z,50.08
2018-10-19T09:25:06.948Z,49.29
2018-10-19T09:27:38.217Z,50.72
2018-10-19T09:30:09.977Z,50.68
2018-10-19T09:32:41.166Z,50.74
2018-10-19T09:35:12.769Z,49.42
2018-10-19T09:37:43.931Z,49.53
2018-10-19T09:40:15.935Z,47.79
2018-10-19T09:42:47.455Z,48.63
2018-10-19T09:45:19.625Z,48.79
2018-10-19T09:47:51.052Z,49.10
2018-10-19T09:50:22.788Z,46.90
2018-10-19T09:52:54.022Z,46.73
2018-10-19T09:55:25.560Z,48.26
2018-10-19T09:57:57.102Z,47.39
2018-10-19T10:00:45.704Z,46.34
2018-10-19T10:03:17.059Z,44.80
2018-10-19T10:05:48.087Z,46.04
2018-10-19T10:08:19.588Z,46.42
2018-10-19T10:10:50.792Z,45.05
2018-10-19T10:13:22.298Z,45.64
2018-10-19T10:15:53.891Z,45.79
2018-10-19T10:18:25.456Z,46.10
2018-10-19T10:20:56.612Z,44.43
2018-10-19T10:23:27.838Z,43.74
2018-10-19T10:25:59.423Z,42.65
2018-10-19T10:28:30.692Z,43.26
2018-10-19T10:31:02.186Z,42.04
2018-10-19T10:33:33.383Z,43.34
2018-10-19T10:36:05.239Z,43.92
2018-10-19T10:38:36.513Z,45.18
2018-10-19T10:41:07.713Z,45.12
2018-10-19T10:43:39.117Z,45.04
2018-10-19T10:46:10.649Z,44.38
2018-10-19T10:48:42.055Z,44.47
2018-10-19T10:51:13.268Z,44.48
2018-10-19T10:53:44.958Z,44.02
2018-10-19T10:56:16.216Z,43.24
2018-10-19T10:58:47.766Z,42.88
2018-10-19T11:01:19.430Z,42.37
2018-10-19T11:03:50.845Z,43.15
2018-10-19T11:06:22.296Z,44.58
2018-10-19T11:08:53.499Z,42.67
2018-10-19T11:11:24.729Z,42.52
2018-10-19T11:13:56.267Z,43.28
2018-10-19T11:16:27.755Z,41.54
2018-10-19T11:18:58.946Z,40.41
2018-10-19T11:21:30.245Z,41.45
2018-10-19T11:24:01.547Z,40.73
2018-10-19T11:26:32.970Z,42.23
2018-10-19T11:29:04.541Z,41.97
2018-10-19T11:31:36.204Z,42.90
2018-10-19T11:34:07.467Z,42.81
2018-10-19T11:36:38.607Z,44.41
2018-10-19T11:39:11.169Z,42.66
2018-10-19T11:41:42.822Z,43.30
2018-10-19T11:44:14.477Z,42.29
2018-10-19T11:46:45.696Z,41.36
2018-10-19T11:49:17.469Z,42.50
2018-10-19T11:51:48.703Z,43.74
2018-10-19T11:54:19.938Z,44.63
2018-10-19T11:56:51.520Z,44.81
2018-10-19T11:59:22.727Z,44.18
2018-10-19T12:01:53.941Z,41.45
2018-10-19T12:04:25.487Z,41.59
2018-10-19T12:06:56.802Z,41.14
2018-10-19T12:09:28.003Z,39.59
2018-10-19T12:11:59.528Z,39.82
2018-10-19T12:14:31.359Z,39.53
2018-10-19T12:17:03.099Z,41.06
2018-10-19T12:19:34.572Z,40.70
2018-10-19T12:22:05.765Z,39.72
2018-10-19T12:24:37.319Z,40.20
2018-10-19T12:27:08.609Z,39.35
2018-10-19T12:29:40.003Z,38.23
2018-10-19T12:32:11.416Z,37.82
2018-10-19T12:34:42.878Z,38.71
2018-10-19T12:37:14.562Z,39.43
2018-10-19T12:39:45.968Z,38.58
2018-10-19T12:42:17.438Z,38.91
2018-10-19T12:44:49.107Z,38.10
2018-10-19T12:47:41.472Z,38.26
2018-10-19T12:50:12.783Z,39.57
2018-10-19T12:52:43.933Z,40.51
2018-10-19T12:55:15.244Z,38.97
2018-10-19T12:57:48.539Z,40.10
2018-10-19T13:00:18.064Z,40.36
2018-10-19T13:02:49.609Z,39.58
2018-10-19T13:05:20.835Z,38.76
2018-10-19T13:07:52.014Z,37.28
2018-10-19T13:10:24.125Z,37.11
2018-10-19T13:12:55.600Z,38.66
2018-10-19T13:15:26.769Z,37.24
2018-10-19T13:17:57.977Z,36.97
2018-10-19T13:20:29.778Z,38.29
2018-10-19T13:23:01.049Z,37.36
2018-10-19T13:25:32.290Z,37.63
2018-10-19T13:28:03.766Z,39.55
2018-10-19T13:30:35.268Z,40.75
2018-10-19T13:33:06.545Z,39.53
2018-10-19T13:35:37.696Z,38.77
2018-10-19T13:38:08.985Z,37.94
2018-10-19T13:40:40.199Z,37.16
2018-10-19T13:43:11.821Z,38.65
2018-10-19T13:45:43.047Z,39.61
2018-10-19T13:48:14.313Z,40.40
2018-10-19T13:50:45.552Z,39.89
2018-10-19T13:53:17.311Z,40.45
2018-10-19T13:55:48.569Z,40.11
2018-10-19T13:58:20.175Z,38.94
2018-10-19T14:00:51.739Z,40.67
2018-10-19T14:03:23.427Z,40.99
2018-10-19T14:05:54.636Z,41.75
2018-10-19T14:08:26.183Z,42.48
2018-10-19T14:10:58.255Z,43.59
2018-10-19T14:13:29.420Z,43.83
2018-10-19T14:16:01.324Z,46.69
2018-10-19T14:18:32.904Z,47.54
2018-10-19T14:21:04.638Z,48.43
2018-10-19T14:23:35.821Z,46.09
2018-10-19T14:26:07.012Z,45.71
2018-10-19T14:28:38.304Z,45.35
2018-10-19T14:31:09.513Z,46.40
2018-10-19T14:33:41.275Z,45.68
2018-10-19T14:36:12.444Z,46.80
2018-10-19T14:38:44.180Z,47.58
2018-10-19T14:41:15.674Z,48.83
2018-10-19T14:43:46.850Z,50.47
2018-10-19T14:46:18.144Z,51.13
2018-10-19T14:48:49.734Z,51.74
2018-10-19T14:51:21.127Z,51.62
2018-10-19T14:53:52.367Z,51.21
2018-10-19T14:56:24.075Z,51.90
2018-10-19T14:58:55.263Z,52.50
2018-10-19T15:01:26.506Z,52.79
2018-10-19T15:03:57.675Z,53.38
2018-10-19T15:06:29.150Z,53.22
2018-10-19T15:09:00.464Z,53.94
2018-10-19T15:11:31.764Z,53.73
2018-10-19T15:14:02.829Z,54.20
2018-10-19T15:16:34.323Z,54.82
2018-10-19T15:19:05.595Z,54.57
2018-10-19T15:21:36.770Z,55.43
2018-10-19T15:24:08.302Z,56.17
2018-10-19T15:26:39.469Z,57.41
2018-10-19T15:29:11.068Z,58.17
2018-10-19T15:31:42.417Z,58.69
2018-10-19T15:34:14.059Z,59.09
2018-10-19T15:36:45.257Z,59.58
2018-10-19T15:39:16.990Z,60.83
2018-10-19T15:41:48.392Z,61.65
2018-10-19T15:44:19.785Z,62.26
2018-10-19T15:46:51.014Z,63.15
2018-10-19T15:49:22.527Z,63.75
2018-10-19T15:51:53.957Z,64.51
2018-10-19T15:54:25.143Z,64.85
2018-10-19T15:56:56.648Z,65.67
2018-10-19T15:59:28.036Z,65.68
2018-10-19T16:01:59.235Z,66.16
2018-10-19T16:04:30.412Z,66.37
2018-10-19T16:07:01.720Z,66.86
2018-10-19T16:09:32.879Z,67.30
2018-10-19T16:12:04.077Z,67.92
2018-10-19T16:14:35.535Z,68.30
2018-10-19T16:17:06.814Z,68.14
2018-10-19T16:19:37.995Z,68.70
2018-10-19T16:22:09.625Z,69.29
2018-10-19T16:24:41.061Z,69.60
2018-10-19T16:27:12.598Z,70.00
2018-10-19T16:29:44.041Z,70.06
2018-10-19T16:32:15.721Z,69.88
2018-10-19T16:34:46.986Z,69.83
2018-10-19T16:37:18.167Z,70.01
2018-10-19T16:39:49.655Z,69.88
2018-10-19T16:42:21.213Z,70.06
2018-10-19T16:44:52.438Z,70.60
2018-10-19T16:47:24.520Z,70.80
2018-10-19T16:49:55.715Z,71.11
2018-10-19T16:54:58.321Z,71.79
2018-10-19T16:57:29.646Z,71.96
2018-10-19T17:00:00.862Z,71.91
2018-10-19T17:02:32.355Z,71.99
2018-10-19T17:05:03.638Z,71.48
2018-10-19T17:07:35.123Z,71.32
2018-10-19T17:10:06.771Z,71.19
2018-10-19T17:12:38.014Z,71.25
2018-10-19T17:15:09.494Z,71.54
2018-10-19T17:17:40.679Z,71.57
2018-10-19T17:20:11.895Z,71.57
2018-10-19T17:22:43.076Z,71.87
2018-10-19T17:25:14.341Z,71.83
2018-10-19T17:27:45.519Z,71.96
2018-10-19T17:30:17.073Z,71.78
2018-10-19T17:32:48.703Z,72.20
2018-10-19T17:35:19.910Z,72.68
2018-10-19T17:37:51.757Z,72.92
2018-10-19T17:40:23.169Z,73.96
2018-10-19T17:42:54.438Z,74.06
2018-10-19T17:45:25.626Z,74.06
2018-10-19T17:47:56.911Z,74.46
2018-10-19T17:50:28.092Z,73.73
2018-10-19T17:52:59.660Z,76.39
2018-10-19T17:55:30.799Z,75.83
2018-10-19T17:58:02.097Z,75.92
2018-10-19T18:00:33.427Z,76.02
2018-10-19T18:03:05.386Z,78.60
2018-10-19T18:05:37.019Z,78.33
2018-10-19T18:08:08.569Z,77.71
2018-10-19T18:10:40.133Z,76.99
2018-10-19T18:13:11.370Z,76.35
2018-10-19T18:15:42.709Z,77.37
2018-10-19T18:18:13.861Z,77.12
2018-10-19T18:20:45.044Z,77.37
2018-10-19T18:23:16.513Z,76.66
2018-10-19T18:25:47.463Z,76.38
2018-10-19T18:28:19.085Z,76.67
2018-10-19T18:30:50.524Z,76.27
2018-10-19T18:33:21.774Z,75.76
2018-10-19T18:35:53.393Z,76.26
2018-10-19T18:38:24.921Z,76.69
2018-10-19T18:40:56.270Z,76.90
2018-10-19T18:43:27.849Z,76.03
2018-10-19T18:45:59.070Z,76.86
2018-10-19T18:48:30.846Z,77.22
2018-10-19T18:51:02.873Z,77.66
2018-10-19T18:53:34.041Z,77.91
2018-10-19T18:56:05.339Z,78.08
2018-10-19T18:58:36.867Z,78.06
2018-10-19T19:01:08.408Z,77.74
2018-10-19T19:03:39.604Z,77.79
2018-10-19T19:06:10.844Z,77.97
2018-10-19T19:08:42.960Z,77.90
2018-10-19T19:11:14.206Z,78.09
2018-10-19T19:13:51.728Z,78.26
2018-10-19T19:16:30.324Z,78.47
2018-10-19T19:19:01.561Z,78.39
2018-10-19T19:21:33.438Z,77.77
2018-10-19T19:24:21.841Z,78.04
2018-10-19T19:26:53.786Z,78.26
2018-10-19T19:29:25.044Z,78.56
2018-10-19T19:31:56.313Z,78.64
2018-10-19T19:34:34.632Z,78.53
2018-10-19T19:37:05.862Z,79.09
2018-10-19T19:39:37.049Z,78.91
2018-10-19T19:42:26.405Z,78.85
2018-10-19T19:44:57.586Z,78.69
2018-10-19T19:47:46.526Z,78.98
2018-10-19T19:50:17.712Z,78.24
2018-10-19T19:52:49.200Z,78.32
2018-10-19T19:55:20.789Z,79.29
2018-10-19T19:57:51.985Z,78.33
2018-10-19T20:00:23.560Z,78.18
2018-10-19T20:02:55.199Z,77.90
2018-10-19T20:05:26.753Z,78.76
2018-10-19T20:07:58.044Z,78.28
2018-10-19T20:10:29.241Z,78.40
2018-10-19T20:13:00.709Z,78.16
2018-10-19T20:15:31.944Z,78.12
2018-10-19T20:18:03.244Z,77.50
2018-10-19T20:20:34.402Z,77.41
2018-10-19T20:23:05.650Z,77.49
2018-10-19T20:25:36.822Z,77.58
2018-10-19T20:28:08.330Z,77.75
2018-10-19T20:30:39.498Z,78.69
2018-10-19T20:33:11.202Z,79.30
2018-10-19T20:35:42.740Z,79.11
2018-10-19T20:38:14.086Z,78.84
2018-10-19T20:40:45.282Z,78.16
2018-10-19T20:43:16.499Z,78.61
2018-10-19T20:45:48.057Z,78.95
2018-10-19T20:48:19.404Z,79.31
2018-10-19T20:50:50.561Z,78.87
2018-10-19T20:53:21.806Z,78.32
2018-10-19T20:55:53.524Z,77.68
2018-10-19T20:58:24.664Z,81.06
2018-10-19T21:00:55.855Z,78.87
2018-10-19T21:03:27.401Z,75.29
2018-10-19T21:05:58.541Z,75.21
2018-10-19T21:08:29.758Z,76.71
2018-10-19T21:11:01.072Z,78.09
2018-10-19T21:13:32.274Z,79.17
2018-10-19T21:16:03.385Z,80.36
2018-10-19T21:18:34.989Z,79.76
2018-10-19T21:21:06.510Z,79.67
2018-10-19T21:23:37.825Z,78.95
2018-10-19T21:26:09.366Z,78.33
2018-10-19T21:28:40.470Z,78.40
2018-10-19T21:31:12.014Z,78.26
2018-10-19T21:33:43.520Z,78.42
2018-10-19T21:36:15.602Z,77.88
2018-10-19T21:38:47.214Z,78.54
2018-10-19T21:41:18.374Z,78.85
2018-10-19T21:43:49.584Z,78.79
2018-10-19T21:46:22.017Z,78.73
2018-10-19T21:48:53.552Z,78.47
2018-10-19T21:51:24.763Z,77.74
2018-10-19T21:53:56.657Z,77.72
2018-10-19T21:56:28.064Z,77.83
2018-10-19T21:58:59.302Z,77.29
2018-10-19T22:01:30.764Z,78.42
2018-10-19T22:04:01.942Z,79.34
2018-10-19T22:06:34.106Z,80.26
2018-10-19T22:09:07.056Z,78.94
2018-10-19T22:11:38.624Z,78.57
2018-10-19T22:14:10.677Z,78.83
2018-10-19T22:16:42.465Z,78.62
2018-10-19T22:19:13.744Z,79.88
2018-10-19T22:21:45.135Z,80.59
2018-10-19T22:24:16.709Z,80.38
2018-10-19T22:26:47.936Z,80.60
2018-10-19T22:29:19.148Z,81.91
2018-10-19T22:31:50.335Z,80.84
2018-10-19T22:34:21.509Z,80.93
2018-10-19T22:36:52.990Z,80.64
2018-10-19T22:39:24.434Z,80.76
2018-10-19T22:41:55.893Z,80.68
2018-10-19T22:44:27.311Z,80.03
2018-10-19T22:46:58.731Z,79.39
2018-10-19T22:49:29.931Z,78.75
2018-10-19T22:52:01.488Z,79.12
2018-10-19T22:54:32.701Z,78.71
2018-10-19T22:57:04.332Z,79.62
2018-10-19T22:59:35.846Z,79.71
2018-10-19T23:02:07.974Z,79.29
2018-10-19T23:04:39.123Z,78.72
2018-10-19T23:07:10.381Z,79.28
2018-10-19T23:09:41.868Z,79.57
2018-10-19T23:12:13.959Z,79.19
2018-10-19T23:14:45.146Z,79.64
2018-10-19T23:17:16.444Z,80.71
2018-10-19T23:19:47.895Z,80.96
2018-10-19T23:22:19.450Z,80.91
2018-10-19T23:24:50.903Z,80.84
2018-10-19T23:27:22.373Z,80.89
2018-10-19T23:29:54.068Z,80.70
2018-10-19T23:32:25.323Z,80.83
2018-10-19T23:34:57.324Z,80.18
2018-10-19T23:37:28.905Z,79.99
2018-10-19T23:40:00.536Z,80.22
2018-10-19T23:42:31.767Z,80.75
2018-10-19T23:45:02.991Z,79.92
2018-10-19T23:47:34.253Z,81.05
2018-10-19T23:50:05.654Z,81.75
2018-10-19T23:52:37.198Z,82.51
2018-10-19T23:55:08.933Z,82.32
2018-10-19T23:57:40.072Z,82.09
